createdAt,value
2023-03-08T00:02:24.156Z,12.90
2023-03-08T00:04:54.728Z,12.63
2023-03-08T00:07:22.691Z,13.05
2023-03-08T00:09:49.944Z,13.18
2023-03-08T00:12:20.221Z,12.90
2023-03-08T00:14:47.521Z,13.00
2023-03-08T00:17:14.924Z,12.63
2023-03-08T00:19:42.090Z,12.57
2023-03-08T00:22:09.190Z,13.73
2023-03-08T00:24:36.291Z,13.85
2023-03-08T00:27:03.600Z,14.70
2023-03-08T00:29:31.365Z,13.60
2023-03-08T00:31:58.573Z,15.32
2023-03-08T00:34:25.768Z,14.38
2023-03-08T00:36:52.963Z,14.18
2023-03-08T00:39:20.230Z,13.77
2023-03-08T00:41:47.406Z,14.35
2023-03-08T00:44:14.538Z,14.55
2023-03-08T00:46:41.721Z,14.43
2023-03-08T00:49:09.972Z,13.88
2023-03-08T00:51:37.183Z,14.30
2023-03-08T00:54:04.472Z,14.85
2023-03-08T00:56:31.740Z,13.20
2023-03-08T00:58:59.044Z,14.55
2023-03-08T01:01:26.270Z,14.70
2023-03-08T01:03:53.498Z,13.27
2023-03-08T01:06:22.364Z,13.90
2023-03-08T01:08:49.572Z,13.55
2023-03-08T01:11:21.322Z,14.27
2023-03-08T01:13:48.992Z,15.32
2023-03-08T01:16:22.504Z,12.65
2023-03-08T01:18:49.785Z,13.50
2023-03-08T01:21:16.930Z,13.35
2023-03-08T01:23:44.107Z,14.25
2023-03-08T01:26:16.952Z,13.75
2023-03-08T01:28:44.207Z,13.50
2023-03-08T01:31:19.167Z,13.15
2023-03-08T01:33:46.561Z,14.18
2023-03-08T01:36:18.173Z,13.40
2023-03-08T01:38:45.610Z,13.35
2023-03-08T01:41:28.052Z,12.93
2023-03-08T01:43:55.349Z,12.20
2023-03-08T01:46:32.902Z,12.30
2023-03-08T01:49:28.493Z,13.30
2023-03-08T01:52:03.486Z,12.77
2023-03-08T01:54:38.870Z,12.73
2023-03-08T01:57:22.998Z,13.90
2023-03-08T01:59:50.419Z,12.73
2023-03-08T02:02:20.176Z,13.02
2023-03-08T02:04:47.325Z,11.98
2023-03-08T02:07:19.599Z,11.82
2023-03-08T02:09:47.547Z,12.20
2023-03-08T02:12:14.718Z,11.90
2023-03-08T02:14:42.768Z,13.30
2023-03-08T02:17:10.611Z,12.50
2023-03-08T02:19:54.282Z,12.35
2023-03-08T02:22:23.935Z,11.80
2023-03-08T02:24:51.058Z,12.60
2023-03-08T02:27:23.553Z,12.48
2023-03-08T02:29:50.712Z,11.52
2023-03-08T02:32:17.976Z,11.40
2023-03-08T02:34:45.173Z,12.40
2023-03-08T02:37:12.946Z,11.18
2023-03-08T02:39:40.108Z,11.93
2023-03-08T02:42:07.633Z,11.65
2023-03-08T02:44:35.570Z,12.13
2023-03-08T02:47:02.816Z,11.18
2023-03-08T02:49:30.109Z,10.13
2023-03-08T02:51:57.888Z,10.45
2023-03-08T02:54:25.001Z,10.82
2023-03-08T02:56:52.191Z,10.65
2023-03-08T02:59:19.436Z,10.32
2023-03-08T03:01:47.160Z,9.40
2023-03-08T03:04:14.364Z,11.13
2023-03-08T03:06:41.468Z,9.75
2023-03-08T03:09:10.941Z,10.20
2023-03-08T03:11:39.924Z,10.23
2023-03-08T03:14:07.216Z,10.80
2023-03-08T03:16:39.307Z,9.68
2023-03-08T03:19:06.481Z,9.95
2023-03-08T03:21:33.623Z,10.27
2023-03-08T03:24:00.852Z,11.10
2023-03-08T03:26:35.512Z,10.63
2023-03-08T03:29:02.783Z,9.95
2023-03-08T03:31:34.290Z,9.70
2023-03-08T03:34:02.004Z,10.80
2023-03-08T03:36:30.471Z,9.95
2023-03-08T03:38:58.860Z,9.05
2023-03-08T03:41:26.649Z,9.55
2023-03-08T03:44:07.451Z,8.93
2023-03-08T03:46:35.485Z,8.02
2023-03-08T03:49:04.638Z,8.80
2023-03-08T03:51:36.279Z,8.82
2023-03-08T03:54:13.011Z,8.15
2023-03-08T03:56:41.993Z,8.30
2023-03-08T03:59:09.140Z,8.45
2023-03-08T04:01:36.495Z,8.20
2023-03-08T04:04:12.464Z,7.72
2023-03-08T04:06:43.220Z,7.65
2023-03-08T04:09:15.668Z,8.00
2023-03-08T04:11:49.326Z,7.88
2023-03-08T04:14:22.959Z,7.35
2023-03-08T04:16:51.968Z,7.20
2023-03-08T04:19:28.722Z,8.55
2023-03-08T04:21:58.131Z,7.88
2023-03-08T04:24:31.535Z,7.35
2023-03-08T04:27:03.396Z,7.10
2023-03-08T04:29:30.608Z,7.45
2023-03-08T04:32:00.287Z,7.80
2023-03-08T04:34:34.331Z,6.65
2023-03-08T04:37:01.941Z,7.47
2023-03-08T04:39:29.471Z,7.50
2023-03-08T04:41:56.790Z,7.90
2023-03-08T04:44:30.133Z,7.35
2023-03-08T04:46:57.720Z,7.03
2023-03-08T04:49:32.559Z,6.63
2023-03-08T04:52:02.836Z,7.10
2023-03-08T04:54:31.737Z,6.32
2023-03-08T04:57:04.757Z,7.07
2023-03-08T04:59:36.156Z,6.50
2023-03-08T05:02:05.424Z,7.45
2023-03-08T05:04:38.029Z,6.28
2023-03-08T05:07:05.455Z,6.97
2023-03-08T05:09:35.182Z,6.30
2023-03-08T05:12:02.770Z,6.97
2023-03-08T05:14:43.530Z,6.57
2023-03-08T05:17:10.751Z,7.57
2023-03-08T05:19:37.885Z,8.50
2023-03-08T05:22:06.179Z,8.32
2023-03-08T05:24:35.821Z,8.02
2023-03-08T05:27:08.598Z,7.07
2023-03-08T05:29:37.312Z,7.47
2023-03-08T05:32:06.695Z,7.10
2023-03-08T05:34:34.690Z,6.63
2023-03-08T05:37:04.456Z,6.20
2023-03-08T05:39:34.282Z,6.88
2023-03-08T05:42:12.847Z,6.75
2023-03-08T05:44:43.246Z,6.53
2023-03-08T05:47:12.777Z,7.10
2023-03-08T05:49:41.305Z,6.55
2023-03-08T05:52:09.366Z,6.85
2023-03-08T05:54:36.573Z,7.35
2023-03-08T05:57:09.417Z,7.20
2023-03-08T05:59:38.009Z,6.18
2023-03-08T06:02:06.791Z,6.75
2023-03-08T06:04:40.546Z,5.82
2023-03-08T06:07:08.971Z,5.95
2023-03-08T06:09:40.874Z,6.03
2023-03-08T06:12:12.358Z,6.85
2023-03-08T06:14:39.583Z,6.68
2023-03-08T06:17:07.180Z,6.35
2023-03-08T06:19:37.123Z,7.10
2023-03-08T06:22:04.324Z,6.20
2023-03-08T06:24:32.200Z,6.28
2023-03-08T06:27:02.222Z,6.68
2023-03-08T06:29:29.438Z,6.18
2023-03-08T06:31:57.043Z,6.20
2023-03-08T06:34:24.307Z,6.47
2023-03-08T06:36:56.682Z,8.23
2023-03-08T06:39:24.424Z,6.90
2023-03-08T06:41:51.621Z,6.15
2023-03-08T06:44:18.750Z,7.30
2023-03-08T06:46:45.928Z,6.25
2023-03-08T06:49:13.133Z,5.88
2023-03-08T06:51:42.640Z,6.65
2023-03-08T06:54:10.652Z,6.13
2023-03-08T06:56:37.864Z,6.05
2023-03-08T06:59:07.123Z,5.80
2023-03-08T07:01:36.409Z,6.85
2023-03-08T07:04:03.615Z,7.25
2023-03-08T07:06:32.111Z,6.35
2023-03-08T07:08:59.992Z,7.10
2023-03-08T07:11:29.010Z,6.65
2023-03-08T07:13:57.584Z,6.00
2023-03-08T07:16:24.827Z,6.40
2023-03-08T07:18:52.051Z,6.40
2023-03-08T07:21:19.281Z,6.20
2023-03-08T07:23:46.412Z,5.97
2023-03-08T07:26:13.660Z,6.05
2023-03-08T07:28:41.090Z,6.50
2023-03-08T07:31:11.182Z,6.05
2023-03-08T07:33:38.328Z,6.22
2023-03-08T07:36:06.029Z,5.78
2023-03-08T07:38:33.212Z,5.97
2023-03-08T07:41:00.366Z,6.30
2023-03-08T07:43:27.650Z,6.32
2023-03-08T07:46:06.207Z,5.80
2023-03-08T07:48:33.463Z,7.95
2023-03-08T07:51:03.225Z,6.40
2023-03-08T07:53:30.968Z,6.25
2023-03-08T07:55:59.365Z,6.82
2023-03-08T07:58:27.465Z,5.95
2023-03-08T08:00:54.702Z,6.13
2023-03-08T08:03:24.072Z,6.25
2023-03-08T08:05:51.259Z,6.13
2023-03-08T08:08:18.515Z,6.35
2023-03-08T08:10:45.789Z,5.90
2023-03-08T08:13:13.095Z,6.65
2023-03-08T08:15:40.372Z,6.78
2023-03-08T08:18:07.549Z,6.10
2023-03-08T08:20:34.686Z,5.97
2023-03-08T08:23:01.826Z,6.85
2023-03-08T08:25:29.079Z,5.90
2023-03-08T08:27:56.498Z,6.80
2023-03-08T08:30:23.758Z,6.53
2023-03-08T08:32:50.960Z,6.32
2023-03-08T08:35:18.205Z,6.72
2023-03-08T08:37:45.348Z,5.95
2023-03-08T08:40:13.041Z,6.78
2023-03-08T08:42:40.166Z,6.40
2023-03-08T08:45:08.022Z,6.88
2023-03-08T08:47:35.428Z,7.57
2023-03-08T08:50:02.624Z,7.03
2023-03-08T08:52:29.825Z,7.60
2023-03-08T08:54:57.936Z,6.20
2023-03-08T08:57:25.096Z,7.63
2023-03-08T08:59:52.280Z,6.82
2023-03-08T09:02:19.498Z,7.30
2023-03-08T09:04:46.771Z,7.43
2023-03-08T09:07:14.037Z,6.43
2023-03-08T09:09:41.162Z,6.63
2023-03-08T09:12:08.653Z,6.85
2023-03-08T09:14:37.000Z,6.47
2023-03-08T09:17:06.264Z,6.95
2023-03-08T09:19:33.522Z,7.25
2023-03-08T09:22:00.729Z,7.10
2023-03-08T09:24:27.883Z,6.60
2023-03-08T09:26:55.054Z,7.05
2023-03-08T09:29:22.205Z,7.50
2023-03-08T09:31:49.527Z,7.32
2023-03-08T09:34:19.153Z,7.68
2023-03-08T09:36:46.356Z,6.75
2023-03-08T09:39:13.849Z,6.85
2023-03-08T09:41:51.911Z,6.22
2023-03-08T09:44:55.807Z,6.95
2023-03-08T09:47:48.919Z,6.25
2023-03-08T09:50:50.685Z,7.30
2023-03-08T09:53:55.977Z,5.93
2023-03-08T09:56:33.571Z,6.28
2023-03-08T09:59:14.721Z,7.25
2023-03-08T10:02:13.715Z,6.18
2023-03-08T10:05:09.829Z,6.63
2023-03-08T10:07:49.821Z,6.45
2023-03-08T10:10:49.357Z,6.20
2023-03-08T10:13:37.818Z,5.97
2023-03-08T10:16:24.055Z,6.15
2023-03-08T10:19:24.007Z,7.28
2023-03-08T10:21:51.530Z,6.90
2023-03-08T10:24:30.366Z,7.40
2023-03-08T10:27:24.175Z,6.30
2023-03-08T10:29:56.674Z,6.45
2023-03-08T10:32:24.340Z,6.88
2023-03-08T10:34:51.604Z,6.53
2023-03-08T10:37:21.942Z,7.88
2023-03-08T10:39:53.336Z,7.72
2023-03-08T10:42:22.762Z,7.22
2023-03-08T10:45:13.388Z,8.35
2023-03-08T10:47:40.949Z,7.82
2023-03-08T10:50:20.024Z,7.45
2023-03-08T10:52:48.898Z,7.55
2023-03-08T10:55:21.842Z,8.10
2023-03-08T10:57:56.087Z,7.10
2023-03-08T11:00:40.905Z,7.80
2023-03-08T11:06:10.563Z,7.53
2023-03-08T11:09:01.274Z,6.93
2023-03-08T11:11:28.473Z,6.75
2023-03-08T11:13:55.771Z,9.02
2023-03-08T11:16:52.807Z,7.88
2023-03-08T11:19:47.140Z,6.53
2023-03-08T11:22:47.826Z,7.13
2023-03-08T11:25:29.916Z,6.43
2023-03-08T11:28:05.994Z,7.40
2023-03-08T11:31:06.347Z,7.20
2023-03-08T11:34:14.889Z,9.07
2023-03-08T11:37:35.927Z,8.13
2023-03-08T11:40:28.123Z,7.18
2023-03-08T11:43:34.319Z,9.27
2023-03-08T11:46:57.717Z,6.80
2023-03-08T11:50:06.008Z,7.07
2023-03-08T11:52:49.303Z,6.78
2023-03-08T11:55:50.091Z,6.55
2023-03-08T11:58:37.960Z,6.40
2023-03-08T12:01:19.887Z,6.35
2023-03-08T12:03:52.769Z,6.53
2023-03-08T12:06:49.770Z,7.32
2023-03-08T12:09:36.560Z,9.82
2023-03-08T12:12:17.872Z,8.63
2023-03-08T12:15:49.936Z,7.67
2023-03-08T12:19:42.216Z,7.15
2023-03-08T12:22:43.335Z,6.63
2023-03-08T12:25:13.388Z,7.03
2023-03-08T12:27:58.316Z,7.47
2023-03-08T12:31:07.864Z,7.47
2023-03-08T12:33:40.227Z,6.78
2023-03-08T12:36:08.072Z,6.47
2023-03-08T12:38:42.494Z,6.28
2023-03-08T12:41:29.095Z,7.22
2023-03-08T12:44:07.258Z,6.10
2023-03-08T12:47:03.039Z,5.88
2023-03-08T12:49:37.097Z,5.80
2023-03-08T12:52:19.682Z,6.05
2023-03-08T12:55:21.474Z,6.05
2023-03-08T12:57:55.049Z,6.22
2023-03-08T13:00:26.676Z,12.98
2023-03-08T13:03:12.142Z,5.45
2023-03-08T13:05:40.826Z,5.35
2023-03-08T13:08:33.893Z,5.20
2023-03-08T13:11:19.319Z,4.70
2023-03-08T13:13:53.435Z,4.18
2023-03-08T13:16:37.498Z,5.05
2023-03-08T13:19:14.762Z,5.80
2023-03-08T13:22:33.069Z,5.10
2023-03-08T13:25:38.791Z,5.80
2023-03-08T13:30:52.308Z,5.82
2023-03-08T13:33:41.552Z,5.13
2023-03-08T13:36:30.888Z,5.22
2023-03-08T13:39:20.955Z,4.93
2023-03-08T13:41:48.360Z,5.57
2023-03-08T13:44:16.341Z,5.57
2023-03-08T13:46:44.225Z,5.22
2023-03-08T13:49:29.733Z,5.68
2023-03-08T13:51:59.541Z,4.63
2023-03-08T13:54:42.150Z,4.80
2023-03-08T13:57:21.889Z,4.53
2023-03-08T13:59:54.983Z,3.60
2023-03-08T14:02:30.100Z,3.38
2023-03-08T14:04:57.959Z,3.65
2023-03-08T14:07:30.637Z,3.67
2023-03-08T14:09:58.053Z,3.47
2023-03-08T14:12:29.410Z,3.58
2023-03-08T14:15:03.648Z,3.95
2023-03-08T14:17:34.911Z,5.05
2023-03-08T14:20:20.679Z,5.20
2023-03-08T14:22:50.255Z,5.00
2023-03-08T14:25:26.932Z,4.32
2023-03-08T14:27:54.593Z,5.07
2023-03-08T14:30:30.087Z,6.15
2023-03-08T14:33:41.738Z,5.60
2023-03-08T14:36:10.012Z,5.43
2023-03-08T14:38:37.198Z,5.90
2023-03-08T14:41:06.367Z,5.90
2023-03-08T14:43:33.648Z,5.40
2023-03-08T14:46:06.216Z,5.43
2023-03-08T14:48:37.913Z,5.22
2023-03-08T14:51:21.265Z,6.10
2023-03-08T14:54:00.132Z,5.50
2023-03-08T14:56:30.094Z,6.70
2023-03-08T14:59:03.746Z,6.57
2023-03-08T15:01:34.068Z,5.75
2023-03-08T15:04:01.723Z,6.57
2023-03-08T15:06:34.420Z,6.28
2023-03-08T15:09:02.042Z,7.47
2023-03-08T15:11:31.600Z,7.00
2023-03-08T15:13:59.473Z,7.60
2023-03-08T15:16:27.091Z,7.30
2023-03-08T15:18:54.431Z,7.28
2023-03-08T15:21:24.501Z,7.57
2023-03-08T15:23:51.869Z,7.53
2023-03-08T15:26:31.535Z,7.95
2023-03-08T15:28:59.445Z,7.43
2023-03-08T15:31:26.818Z,7.70
2023-03-08T15:33:54.002Z,7.85
2023-03-08T15:36:21.223Z,8.45
2023-03-08T15:38:48.431Z,7.50
2023-03-08T15:41:16.553Z,7.30
2023-03-08T15:43:43.908Z,8.10
2023-03-08T15:46:14.539Z,8.00
2023-03-08T15:48:42.193Z,8.63
2023-03-08T15:51:18.635Z,8.10
2023-03-08T15:53:46.723Z,7.82
2023-03-08T15:56:15.208Z,8.50
2023-03-08T15:58:42.779Z,8.23
2023-03-08T16:01:09.957Z,8.13
2023-03-08T16:03:37.332Z,7.88
2023-03-08T16:06:13.100Z,8.80
2023-03-08T16:08:41.010Z,9.68
2023-03-08T16:11:16.210Z,9.30
2023-03-08T16:13:43.609Z,8.68
2023-03-08T16:16:10.855Z,9.70
2023-03-08T16:18:40.426Z,9.27
2023-03-08T16:21:09.116Z,10.45
2023-03-08T16:23:41.640Z,9.18
2023-03-08T16:26:16.192Z,9.90
2023-03-08T16:28:45.950Z,10.13
2023-03-08T16:31:13.735Z,10.55
2023-03-08T16:33:41.112Z,10.35
2023-03-08T16:36:08.561Z,10.88
2023-03-08T16:38:35.958Z,10.55
2023-03-08T16:41:14.336Z,10.43
2023-03-08T16:43:48.139Z,11.27
2023-03-08T16:46:18.495Z,11.93
2023-03-08T16:48:49.244Z,11.63
2023-03-08T16:51:18.945Z,12.00
2023-03-08T16:53:46.255Z,11.32
2023-03-08T16:56:25.219Z,12.95
2023-03-08T16:58:53.605Z,12.55
2023-03-08T17:01:21.205Z,12.70
2023-03-08T17:03:48.678Z,12.43
2023-03-08T17:06:18.368Z,12.55
2023-03-08T17:08:45.914Z,12.13
2023-03-08T17:11:22.466Z,13.00
2023-03-08T17:13:51.147Z,11.18
2023-03-08T17:16:27.473Z,12.60
2023-03-08T17:18:54.743Z,12.30
2023-03-08T17:21:22.223Z,12.35
2023-03-08T17:23:50.479Z,12.93
2023-03-08T17:26:22.468Z,12.77
2023-03-08T17:28:51.272Z,13.70
2023-03-08T17:31:21.018Z,15.02
2023-03-08T17:33:48.731Z,14.43
2023-03-08T17:36:16.359Z,14.00
2023-03-08T17:38:43.786Z,14.02
2023-03-08T17:41:14.005Z,15.43
2023-03-08T17:43:41.892Z,14.32
2023-03-08T17:46:14.622Z,13.55
2023-03-08T17:48:42.060Z,13.90
2023-03-08T17:51:12.025Z,11.18
2023-03-08T17:53:39.558Z,11.82
2023-03-08T17:56:15.151Z,11.02
2023-03-08T17:58:42.708Z,10.13
2023-03-08T18:01:21.168Z,10.05
2023-03-08T18:03:48.792Z,10.95
2023-03-08T18:06:30.938Z,10.13
2023-03-08T18:08:58.819Z,9.82
2023-03-08T18:11:26.068Z,9.57
2023-03-08T18:13:53.592Z,10.07
2023-03-08T18:16:21.927Z,10.07
2023-03-08T18:18:49.513Z,10.02
2023-03-08T18:21:21.816Z,11.55
2023-03-08T18:23:49.001Z,11.15
2023-03-08T18:26:17.296Z,11.30
2023-03-08T18:28:44.567Z,11.35
2023-03-08T18:31:18.272Z,11.40
2023-03-08T18:33:48.564Z,14.00
2023-03-08T18:36:15.889Z,14.00
2023-03-08T18:38:43.067Z,15.07
2023-03-08T18:41:22.313Z,13.48
2023-03-08T18:43:51.206Z,13.25
2023-03-08T18:46:18.721Z,13.43
2023-03-08T18:48:50.746Z,14.95
2023-03-08T18:51:18.090Z,13.48
2023-03-08T18:53:45.272Z,15.00
2023-03-08T18:56:12.625Z,11.15
2023-03-08T18:58:39.874Z,11.48
2023-03-08T19:01:16.448Z,9.73
2023-03-08T19:03:44.052Z,8.93
2023-03-08T19:06:11.967Z,8.13
2023-03-08T19:08:39.243Z,8.05
2023-03-08T19:11:26.219Z,7.65
2023-03-08T19:13:53.608Z,8.25
2023-03-08T19:16:34.033Z,8.02
2023-03-08T19:19:07.326Z,7.75
2023-03-08T19:21:43.192Z,8.30
2023-03-08T19:24:14.746Z,7.82
2023-03-08T19:26:43.253Z,7.10
2023-03-08T19:29:32.538Z,7.40
2023-03-08T19:32:05.671Z,7.80
2023-03-08T19:34:38.243Z,8.45
2023-03-08T19:37:06.442Z,8.10
2023-03-08T19:39:36.448Z,8.32
2023-03-08T19:42:06.686Z,8.07
2023-03-08T19:44:34.059Z,8.02
2023-03-08T19:47:01.534Z,8.60
2023-03-08T19:49:30.554Z,8.38
2023-03-08T19:51:59.363Z,8.38
2023-03-08T19:54:30.109Z,8.45
2023-03-08T19:56:57.775Z,7.75
2023-03-08T19:59:25.351Z,7.85
2023-03-08T20:01:53.785Z,8.05
2023-03-08T20:04:21.942Z,8.10
2023-03-08T20:06:49.718Z,7.72
2023-03-08T20:09:21.728Z,7.05
2023-03-08T20:11:57.443Z,12.27
2023-03-08T20:14:27.191Z,14.18
2023-03-08T20:16:55.535Z,13.90
2023-03-08T20:19:22.839Z,13.63
2023-03-08T20:21:50.074Z,13.45
2023-03-08T20:24:18.876Z,13.73
2023-03-08T20:26:46.308Z,13.55
2023-03-08T20:29:13.944Z,14.98
2023-03-08T20:31:41.949Z,13.05
2023-03-08T20:34:09.558Z,14.82
2023-03-08T20:36:37.463Z,14.50
2023-03-08T20:39:04.791Z,13.85
2023-03-08T20:41:32.165Z,13.25
2023-03-08T20:43:59.444Z,14.57
2023-03-08T20:46:31.156Z,13.65
2023-03-08T20:48:58.734Z,13.15
2023-03-08T20:51:26.091Z,10.80
2023-03-08T20:53:54.470Z,9.40
2023-03-08T20:56:23.125Z,7.53
2023-03-08T20:58:50.328Z,7.25
2023-03-08T21:01:20.875Z,7.90
2023-03-08T21:03:48.880Z,7.45
2023-03-08T21:06:19.344Z,7.63
2023-03-08T21:08:47.289Z,6.82
2023-03-08T21:11:14.945Z,7.65
2023-03-08T21:13:42.143Z,7.22
2023-03-08T21:16:12.842Z,7.00
2023-03-08T21:18:45.736Z,7.70
2023-03-08T21:21:36.686Z,7.47
2023-03-08T21:24:13.671Z,7.28
2023-03-08T21:26:40.930Z,8.13
2023-03-08T21:29:11.912Z,7.85
2023-03-08T21:31:45.708Z,6.90
2023-03-08T21:34:13.273Z,6.85
2023-03-08T21:36:40.805Z,6.97
2023-03-08T21:39:08.358Z,6.68
2023-03-08T21:41:39.350Z,7.00
2023-03-08T21:44:09.510Z,6.95
2023-03-08T21:46:37.803Z,7.00
2023-03-08T21:49:05.427Z,7.15
2023-03-08T21:51:33.237Z,7.25
2023-03-08T21:54:00.704Z,7.40
2023-03-08T21:56:27.938Z,6.97
2023-03-08T21:58:55.741Z,7.18
2023-03-08T22:01:28.604Z,7.07
2023-03-08T22:03:56.259Z,7.20
2023-03-08T22:06:24.019Z,6.82
2023-03-08T22:08:51.329Z,6.90
2023-03-08T22:11:18.991Z,6.45
2023-03-08T22:13:54.945Z,6.65
2023-03-08T22:16:22.303Z,6.60
2023-03-08T22:18:55.968Z,7.28
2023-03-08T22:21:23.364Z,6.68
2023-03-08T22:23:55.502Z,7.30
2023-03-08T22:26:23.287Z,7.38
2023-03-08T22:28:50.487Z,6.93
2023-03-08T22:31:20.895Z,7.13
2023-03-08T22:33:48.201Z,6.68
2023-03-08T22:36:16.943Z,6.80
2023-03-08T22:38:44.169Z,6.43
2023-03-08T22:41:17.476Z,6.85
2023-03-08T22:43:44.798Z,6.53
2023-03-08T22:46:19.002Z,6.78
2023-03-08T22:51:14.111Z,6.75
2023-03-08T22:53:41.453Z,6.60
2023-03-08T22:56:22.707Z,6.82
2023-03-08T22:58:50.168Z,6.60
2023-03-08T23:01:20.476Z,6.68
2023-03-08T23:03:49.579Z,7.03
2023-03-08T23:06:17.975Z,6.70
2023-03-08T23:08:45.859Z,7.25
2023-03-08T23:11:13.312Z,7.60
2023-03-08T23:13:41.344Z,7.60
2023-03-08T23:16:11.071Z,7.65
2023-03-08T23:18:38.405Z,7.90
2023-03-08T23:21:07.267Z,9.85
2023-03-08T23:23:37.254Z,8.77
2023-03-08T23:26:05.633Z,8.13
2023-03-08T23:28:35.598Z,7.90
2023-03-08T23:31:21.235Z,7.18
2023-03-08T23:33:49.322Z,7.72
2023-03-08T23:36:18.342Z,7.20
2023-03-08T23:38:45.604Z,7.30
2023-03-08T23:41:13.627Z,7.65
2023-03-08T23:43:43.635Z,6.70
2023-03-08T23:46:16.610Z,7.28
2023-03-08T23:48:44.653Z,7.65
2023-03-08T23:51:19.682Z,7.45
2023-03-08T23:53:51.725Z,7.22
2023-03-08T23:56:26.767Z,6.35
2023-03-08T23:58:56.011Z,6.03
